sim
Sign-in with your pilot id or email,
or register
Callsign
Passwort

Schedule Details

Flight Number: OEO3374
Departure: Dortmund Airport (EDLW) at 04:00
Arrival: Fuerteventura Airport (GCFV) at 08:45

Weather Information
Getting current METAR information for EDLW 181950Z 08009KT CAVOK 15/03 Q1026
Getting current METAR information for GCFV 182000Z 36016KT 9999 FEW045 18/11 Q1019

Schedule Frequency

Route Map